sensor_id;sensor_type;location;lat;lon;timestamp;pressure;altitude;pressure_sealevel;temperature;humidity
47104;BME280;32853;52.164;5.400;2023-04-28T00:02:29;101312.09;;;12.36;50.96
47104;BME280;32853;52.164;5.400;2023-04-28T00:04:57;101316.84;;;12.26;51.44
47104;BME280;32853;52.164;5.400;2023-04-28T00:07:25;101355.16;;;12.52;51.58
47104;BME280;32853;52.164;5.400;2023-04-28T00:09:51;101354.13;;;12.56;51.56
47104;BME280;32853;52.164;5.400;2023-04-28T00:12:16;101294.22;;;12.24;51.46
47104;BME280;32853;52.164;5.400;2023-04-28T00:14:41;101341.88;;;12.35;51.65
47104;BME280;32853;52.164;5.400;2023-04-28T00:17:09;101342.72;;;12.35;51.63
47104;BME280;32853;52.164;5.400;2023-04-28T00:19:35;101316.72;;;12.29;51.53
47104;BME280;32853;52.164;5.400;2023-04-28T00:22:00;101321.47;;;12.41;51.85
47104;BME280;32853;52.164;5.400;2023-04-28T00:24:25;101267.00;;;12.04;51.72
47104;BME280;32853;52.164;5.400;2023-04-28T00:26:51;101313.38;;;12.26;52.28
47104;BME280;32853;52.164;5.400;2023-04-28T00:29:16;101315.00;;;12.28;52.07
47104;BME280;32853;52.164;5.400;2023-04-28T00:31:43;101307.28;;;12.25;52.13
47104;BME280;32853;52.164;5.400;2023-04-28T00:34:08;101299.53;;;12.22;52.22
47104;BME280;32853;52.164;5.400;2023-04-28T00:36:38;101240.56;;;11.88;52.29
47104;BME280;32853;52.164;5.400;2023-04-28T00:39:03;101244.88;;;11.89;52.05
47104;BME280;32853;52.164;5.400;2023-04-28T00:41:28;101288.56;;;12.34;52.29
47104;BME280;32853;52.164;5.400;2023-04-28T00:43:54;101292.69;;;12.18;52.33
47104;BME280;32853;52.164;5.400;2023-04-28T00:46:21;101226.47;;;11.91;52.61
47104;BME280;32853;52.164;5.400;2023-04-28T00:48:49;101222.81;;;11.95;52.14
47104;BME280;32853;52.164;5.400;2023-04-28T00:51:14;101295.72;;;12.29;52.33
47104;BME280;32853;52.164;5.400;2023-04-28T00:53:40;101281.41;;;12.16;52.70
47104;BME280;32853;52.164;5.400;2023-04-28T00:56:06;101292.66;;;12.19;52.63
47104;BME280;32853;52.164;5.400;2023-04-28T00:58:33;101278.78;;;12.16;52.90
47104;BME280;32853;52.164;5.400;2023-04-28T01:01:06;101282.09;;;12.43;52.97
47104;BME280;32853;52.164;5.400;2023-04-28T01:03:41;101230.78;;;12.14;52.91
47104;BME280;32853;52.164;5.400;2023-04-28T01:06:07;101269.22;;;12.15;53.91
47104;BME280;32853;52.164;5.400;2023-04-28T01:08:35;101258.56;;;12.19;53.49
47104;BME280;32853;52.164;5.400;2023-04-28T01:11:01;101265.50;;;12.20;53.10
47104;BME280;32853;52.164;5.400;2023-04-28T01:13:28;101263.78;;;11.98;53.66
47104;BME280;32853;52.164;5.400;2023-04-28T01:16:13;101267.50;;;12.14;53.22
47104;BME280;32853;52.164;5.400;2023-04-28T01:18:46;101269.34;;;12.12;53.57
47104;BME280;32853;52.164;5.400;2023-04-28T01:21:37;101270.44;;;12.28;53.19
47104;BME280;32853;52.164;5.400;2023-04-28T01:24:07;101217.63;;;11.93;53.46
47104;BME280;32853;52.164;5.400;2023-04-28T01:26:44;101262.56;;;12.06;54.45
47104;BME280;32853;52.164;5.400;2023-04-28T01:29:18;101243.84;;;11.93;54.62
47104;BME280;32853;52.164;5.400;2023-04-28T01:31:45;101189.06;;;11.64;54.70
47104;BME280;32853;52.164;5.400;2023-04-28T01:34:11;101252.81;;;12.10;54.44
47104;BME280;32853;52.164;5.400;2023-04-28T01:36:37;101238.31;;;12.01;54.13
47104;BME280;32853;52.164;5.400;2023-04-28T01:39:03;101222.28;;;11.87;54.27
47104;BME280;32853;52.164;5.400;2023-04-28T01:41:29;101248.94;;;11.97;54.10
47104;BME280;32853;52.164;5.400;2023-04-28T01:44:02;101186.53;;;11.61;54.50
47104;BME280;32853;52.164;5.400;2023-04-28T01:46:37;101228.78;;;11.99;54.04
47104;BME280;32853;52.164;5.400;2023-04-28T01:49:24;101225.63;;;11.90;54.28
47104;BME280;32853;52.164;5.400;2023-04-28T01:51:49;101209.50;;;11.78;54.72
47104;BME280;32853;52.164;5.400;2023-04-28T01:54:15;101221.34;;;11.88;54.52
47104;BME280;32853;52.164;5.400;2023-04-28T01:56:50;101168.63;;;11.72;54.44
47104;BME280;32853;52.164;5.400;2023-04-28T01:59:22;101216.41;;;12.02;54.66
47104;BME280;32853;52.164;5.400;2023-04-28T02:01:52;101224.06;;;11.85;54.85
47104;BME280;32853;52.164;5.400;2023-04-28T02:04:21;101206.25;;;11.71;54.90
47104;BME280;32853;52.164;5.400;2023-04-28T02:10:09;101216.41;;;11.80;55.00
47104;BME280;32853;52.164;5.400;2023-04-28T02:12:44;101198.91;;;11.81;54.74
47104;BME280;32853;52.164;5.400;2023-04-28T02:15:09;101164.72;;;11.60;55.23
47104;BME280;32853;52.164;5.400;2023-04-28T02:17:35;101167.84;;;11.70;54.47
47104;BME280;32853;52.164;5.400;2023-04-28T02:20:00;101212.56;;;11.89;55.10
47104;BME280;32853;52.164;5.400;2023-04-28T02:22:27;101203.75;;;11.68;54.97
47104;BME280;32853;52.164;5.400;2023-04-28T02:24:53;101190.41;;;11.51;55.52
47104;BME280;32853;52.164;5.400;2023-04-28T02:27:18;101181.13;;;11.44;55.99
47104;BME280;32853;52.164;5.400;2023-04-28T02:29:44;101184.28;;;11.52;56.05
47104;BME280;32853;52.164;5.400;2023-04-28T02:32:09;101179.31;;;11.68;56.06
47104;BME280;32853;52.164;5.400;2023-04-28T02:34:39;101180.63;;;11.79;55.50
47104;BME280;32853;52.164;5.400;2023-04-28T02:37:06;101150.47;;;11.46;56.26
47104;BME280;32853;52.164;5.400;2023-04-28T02:39:31;101173.34;;;11.64;55.88
47104;BME280;32853;52.164;5.400;2023-04-28T02:41:57;101167.41;;;11.59;56.03
47104;BME280;32853;52.164;5.400;2023-04-28T02:44:29;101163.84;;;11.83;56.23
47104;BME280;32853;52.164;5.400;2023-04-28T02:47:11;101176.03;;;11.84;55.49
47104;BME280;32853;52.164;5.400;2023-04-28T02:49:42;101167.41;;;11.59;56.43
47104;BME280;32853;52.164;5.400;2023-04-28T02:52:20;101143.91;;;11.57;56.26
47104;BME280;32853;52.164;5.400;2023-04-28T02:54:47;101137.94;;;11.54;56.49
47104;BME280;32853;52.164;5.400;2023-04-28T02:57:13;101159.13;;;11.70;56.47
47104;BME280;32853;52.164;5.400;2023-04-28T02:59:38;101132.72;;;11.76;56.41
47104;BME280;32853;52.164;5.400;2023-04-28T03:02:22;101134.28;;;11.58;57.24
47104;BME280;32853;52.164;5.400;2023-04-28T03:04:49;101084.66;;;11.10;57.72
47104;BME280;32853;52.164;5.400;2023-04-28T03:07:15;101123.94;;;11.10;58.40
47104;BME280;32853;52.164;5.400;2023-04-28T03:09:40;101127.03;;;11.19;58.28
47104;BME280;32853;52.164;5.400;2023-04-28T03:12:05;101127.63;;;11.49;58.46
47104;BME280;32853;52.164;5.400;2023-04-28T03:14:31;101108.31;;;11.52;57.83
47104;BME280;32853;52.164;5.400;2023-04-28T03:16:56;101114.72;;;11.67;57.27
47104;BME280;32853;52.164;5.400;2023-04-28T03:19:21;101093.94;;;11.40;58.05
47104;BME280;32853;52.164;5.400;2023-04-28T03:21:48;101111.75;;;11.54;58.27
47104;BME280;32853;52.164;5.400;2023-04-28T03:24:14;101114.53;;;11.71;58.68
47104;BME280;32853;52.164;5.400;2023-04-28T03:26:39;101109.59;;;11.63;58.11
47104;BME280;32853;52.164;5.400;2023-04-28T03:29:05;101105.81;;;11.71;58.36
47104;BME280;32853;52.164;5.400;2023-04-28T03:31:32;101055.41;;;11.44;58.46
47104;BME280;32853;52.164;5.400;2023-04-28T03:33:57;101090.41;;;11.63;58.85
47104;BME280;32853;52.164;5.400;2023-04-28T03:36:23;101100.16;;;11.59;58.79
47104;BME280;32853;52.164;5.400;2023-04-28T03:38:49;101046.50;;;11.26;59.05
47104;BME280;32853;52.164;5.400;2023-04-28T03:41:14;101033.53;;;11.23;59.28
47104;BME280;32853;52.164;5.400;2023-04-28T03:43:39;101065.25;;;11.37;59.25
47104;BME280;32853;52.164;5.400;2023-04-28T03:46:05;101016.56;;;11.11;59.06
47104;BME280;32853;52.164;5.400;2023-04-28T03:48:44;101058.44;;;11.33;59.67
47104;BME280;32853;52.164;5.400;2023-04-28T03:51:10;101071.78;;;11.49;59.51
47104;BME280;32853;52.164;5.400;2023-04-28T03:53:35;101083.84;;;11.53;60.00
47104;BME280;32853;52.164;5.400;2023-04-28T03:56:05;101032.44;;;11.28;59.71
47104;BME280;32853;52.164;5.400;2023-04-28T03:58:35;101070.84;;;11.50;59.92
47104;BME280;32853;52.164;5.400;2023-04-28T04:01:00;101059.78;;;11.43;59.98
47104;BME280;32853;52.164;5.400;2023-04-28T04:03:26;101072.56;;;11.51;59.63
47104;BME280;32853;52.164;5.400;2023-04-28T04:05:51;101031.28;;;11.35;59.59
47104;BME280;32853;52.164;5.400;2023-04-28T04:08:20;101071.34;;;11.59;59.68
47104;BME280;32853;52.164;5.400;2023-04-28T04:10:46;101063.63;;;11.56;59.79
47104;BME280;32853;52.164;5.400;2023-04-28T04:13:11;101027.38;;;11.24;60.55
47104;BME280;32853;52.164;5.400;2023-04-28T04:15:37;100921.47;;;10.67;60.96
47104;BME280;32853;52.164;5.400;2023-04-28T04:18:03;101050.94;;;11.46;61.07
47104;BME280;32853;52.164;5.400;2023-04-28T04:20:29;100969.00;;;11.00;60.96
47104;BME280;32853;52.164;5.400;2023-04-28T04:22:54;100956.56;;;11.05;60.47
47104;BME280;32853;52.164;5.400;2023-04-28T04:25:20;101055.50;;;11.41;60.82
47104;BME280;32853;52.164;5.400;2023-04-28T04:27:51;100909.59;;;10.58;60.64
47104;BME280;32853;52.164;5.400;2023-04-28T04:30:21;101031.41;;;11.32;61.44
47104;BME280;32853;52.164;5.400;2023-04-28T04:32:47;101060.00;;;11.59;62.08
47104;BME280;32853;52.164;5.400;2023-04-28T04:35:12;101045.09;;;11.39;62.04
47104;BME280;32853;52.164;5.400;2023-04-28T04:37:38;101026.19;;;11.32;61.69
47104;BME280;32853;52.164;5.400;2023-04-28T04:40:06;100956.84;;;10.99;62.32
47104;BME280;32853;52.164;5.400;2023-04-28T04:42:32;100843.47;;;10.33;61.60
47104;BME280;32853;52.164;5.400;2023-04-28T04:44:58;100950.69;;;11.00;61.60
47104;BME280;32853;52.164;5.400;2023-04-28T04:47:25;100971.00;;;11.15;62.40
47104;BME280;32853;52.164;5.400;2023-04-28T04:49:52;100939.19;;;11.04;61.98
47104;BME280;32853;52.164;5.400;2023-04-28T04:52:17;100851.63;;;10.47;63.02
47104;BME280;32853;52.164;5.400;2023-04-28T04:54:44;100968.94;;;11.01;62.77
47104;BME280;32853;52.164;5.400;2023-04-28T04:57:13;100973.13;;;11.27;62.86
47104;BME280;32853;52.164;5.400;2023-04-28T04:59:39;100972.81;;;11.35;62.76
47104;BME280;32853;52.164;5.400;2023-04-28T05:02:05;101003.25;;;11.59;63.27
47104;BME280;32853;52.164;5.400;2023-04-28T05:04:33;101011.16;;;11.58;63.44
47104;BME280;32853;52.164;5.400;2023-04-28T05:07:01;100961.03;;;11.25;63.58
47104;BME280;32853;52.164;5.400;2023-04-28T05:09:27;101014.88;;;11.52;63.73
47104;BME280;32853;52.164;5.400;2023-04-28T05:11:54;101013.66;;;11.61;64.06
47104;BME280;32853;52.164;5.400;2023-04-28T05:14:20;101021.94;;;11.50;64.62
47104;BME280;32853;52.164;5.400;2023-04-28T05:16:50;100970.91;;;11.39;64.56
47104;BME280;32853;52.164;5.400;2023-04-28T05:19:22;100980.66;;;11.57;64.35
47104;BME280;32853;52.164;5.400;2023-04-28T05:21:47;101011.09;;;11.81;63.92
47104;BME280;32853;52.164;5.400;2023-04-28T05:24:13;101011.34;;;11.75;64.51
47104;BME280;32853;52.164;5.400;2023-04-28T05:26:39;100980.72;;;11.55;65.19
47104;BME280;32853;52.164;5.400;2023-04-28T05:29:09;101018.16;;;11.79;64.81
47104;BME280;32853;52.164;5.400;2023-04-28T05:31:37;101002.78;;;11.70;65.45
47104;BME280;32853;52.164;5.400;2023-04-28T05:34:07;100970.31;;;11.54;66.35
47104;BME280;32853;52.164;5.400;2023-04-28T05:36:37;101013.72;;;11.81;65.84
47104;BME280;32853;52.164;5.400;2023-04-28T05:39:02;100961.72;;;11.50;65.51
47104;BME280;32853;52.164;5.400;2023-04-28T05:41:27;101024.06;;;11.84;65.90
47104;BME280;32853;52.164;5.400;2023-04-28T05:43:54;101019.72;;;11.83;67.96
47104;BME280;32853;52.164;5.400;2023-04-28T05:46:19;100941.81;;;11.46;69.46
47104;BME280;32853;52.164;5.400;2023-04-28T05:48:47;101016.50;;;11.97;71.74
47104;BME280;32853;52.164;5.400;2023-04-28T05:51:12;100979.53;;;11.62;76.41
47104;BME280;32853;52.164;5.400;2023-04-28T05:53:37;101019.66;;;11.85;78.83
47104;BME280;32853;52.164;5.400;2023-04-28T05:56:03;101012.41;;;11.91;81.57
47104;BME280;32853;52.164;5.400;2023-04-28T05:58:30;101011.09;;;12.02;83.13
47104;BME280;32853;52.164;5.400;2023-04-28T06:01:02;101000.53;;;11.83;87.86
47104;BME280;32853;52.164;5.400;2023-04-28T06:03:27;101011.34;;;11.75;88.52
47104;BME280;32853;52.164;5.400;2023-04-28T06:05:52;101024.88;;;11.86;90.59
47104;BME280;32853;52.164;5.400;2023-04-28T06:08:23;100961.31;;;11.59;90.16
47104;BME280;32853;52.164;5.400;2023-04-28T06:10:48;101011.88;;;11.83;90.48
47104;BME280;32853;52.164;5.400;2023-04-28T06:13:14;100997.19;;;11.79;95.93
47104;BME280;32853;52.164;5.400;2023-04-28T06:15:40;100999.97;;;11.75;96.23
47104;BME280;32853;52.164;5.400;2023-04-28T06:18:05;100999.41;;;11.68;97.65
47104;BME280;32853;52.164;5.400;2023-04-28T06:20:33;100966.25;;;11.67;98.73
47104;BME280;32853;52.164;5.400;2023-04-28T06:23:00;100944.75;;;11.59;99.95
47104;BME280;32853;52.164;5.400;2023-04-28T06:25:26;100960.88;;;11.70;100.00
47104;BME280;32853;52.164;5.400;2023-04-28T06:27:58;100988.78;;;11.71;100.00
47104;BME280;32853;52.164;5.400;2023-04-28T06:30:23;100957.78;;;11.60;100.00
47104;BME280;32853;52.164;5.400;2023-04-28T06:32:49;100975.59;;;11.73;100.00
47104;BME280;32853;52.164;5.400;2023-04-28T06:35:15;100957.81;;;11.81;100.00
47104;BME280;32853;52.164;5.400;2023-04-28T06:37:40;100988.50;;;11.99;100.00
47104;BME280;32853;52.164;5.400;2023-04-28T06:40:06;100949.69;;;11.67;100.00
47104;BME280;32853;52.164;5.400;2023-04-28T06:42:32;100937.16;;;11.73;100.00
47104;BME280;32853;52.164;5.400;2023-04-28T06:44:58;100770.28;;;10.75;100.00
47104;BME280;32853;52.164;5.400;2023-04-28T06:47:43;100980.03;;;12.13;100.00
47104;BME280;32853;52.164;5.400;2023-04-28T06:50:09;100906.13;;;11.64;100.00
47104;BME280;32853;52.164;5.400;2023-04-28T06:52:37;100929.00;;;12.01;100.00
47104;BME280;32853;52.164;5.400;2023-04-28T06:55:05;100948.44;;;11.96;100.00
47104;BME280;32853;52.164;5.400;2023-04-28T06:57:31;100979.63;;;12.22;100.00
47104;BME280;32853;52.164;5.400;2023-04-28T07:00:01;100965.81;;;12.37;100.00
47104;BME280;32853;52.164;5.400;2023-04-28T07:02:28;100972.72;;;12.59;100.00
47104;BME280;32853;52.164;5.400;2023-04-28T07:04:53;100970.22;;;12.56;100.00
47104;BME280;32853;52.164;5.400;2023-04-28T07:07:28;100930.09;;;12.35;100.00
47104;BME280;32853;52.164;5.400;2023-04-28T07:10:01;100914.91;;;12.23;100.00
47104;BME280;32853;52.164;5.400;2023-04-28T07:12:26;100868.69;;;12.01;100.00
47104;BME280;32853;52.164;5.400;2023-04-28T07:14:53;100931.81;;;12.55;100.00
47104;BME280;32853;52.164;5.400;2023-04-28T07:17:20;100870.63;;;12.16;100.00
47104;BME280;32853;52.164;5.400;2023-04-28T07:19:47;100928.69;;;12.65;100.00
47104;BME280;32853;52.164;5.400;2023-04-28T07:22:15;100963.25;;;12.92;100.00
47104;BME280;32853;52.164;5.400;2023-04-28T07:24:40;100894.50;;;12.48;100.00
47104;BME280;32853;52.164;5.400;2023-04-28T07:27:08;100969.41;;;13.10;100.00
47104;BME280;32853;52.164;5.400;2023-04-28T07:29:34;100979.50;;;13.00;100.00
47104;BME280;32853;52.164;5.400;2023-04-28T07:32:00;100969.44;;;12.91;100.00
47104;BME280;32853;52.164;5.400;2023-04-28T07:34:25;100962.38;;;13.11;100.00
47104;BME280;32853;52.164;5.400;2023-04-28T07:36:51;100874.19;;;12.70;100.00
47104;BME280;32853;52.164;5.400;2023-04-28T07:39:17;100959.97;;;13.25;100.00
47104;BME280;32853;52.164;5.400;2023-04-28T07:41:43;100947.16;;;13.36;100.00
47104;BME280;32853;52.164;5.400;2023-04-28T07:44:08;100966.00;;;13.27;100.00
47104;BME280;32853;52.164;5.400;2023-04-28T07:46:42;100967.47;;;13.32;100.00
47104;BME280;32853;52.164;5.400;2023-04-28T07:49:08;100910.16;;;13.23;100.00
47104;BME280;32853;52.164;5.400;2023-04-28T07:51:34;100910.72;;;13.11;100.00
47104;BME280;32853;52.164;5.400;2023-04-28T07:54:03;100952.50;;;13.34;100.00
47104;BME280;32853;52.164;5.400;2023-04-28T07:56:29;100947.19;;;13.53;100.00
47104;BME280;32853;52.164;5.400;2023-04-28T07:58:55;100944.00;;;13.64;100.00
47104;BME280;32853;52.164;5.400;2023-04-28T08:01:21;100931.50;;;13.85;100.00
47104;BME280;32853;52.164;5.400;2023-04-28T08:03:46;100943.88;;;14.00;100.00
47104;BME280;32853;52.164;5.400;2023-04-28T08:06:13;100941.72;;;14.08;100.00
47104;BME280;32853;52.164;5.400;2023-04-28T08:08:39;100878.25;;;13.81;100.00
47104;BME280;32853;52.164;5.400;2023-04-28T08:11:05;100916.03;;;13.96;100.00
47104;BME280;32853;52.164;5.400;2023-04-28T08:13:41;100939.66;;;14.13;100.00
47104;BME280;32853;52.164;5.400;2023-04-28T08:16:10;100881.06;;;13.78;100.00
47104;BME280;32853;52.164;5.400;2023-04-28T08:18:43;100898.13;;;13.87;100.00
47104;BME280;32853;52.164;5.400;2023-04-28T08:21:10;100944.28;;;14.25;100.00
47104;BME280;32853;52.164;5.400;2023-04-28T08:23:38;100943.53;;;14.39;100.00
47104;BME280;32853;52.164;5.400;2023-04-28T08:26:03;100945.03;;;14.45;100.00
47104;BME280;32853;52.164;5.400;2023-04-28T08:28:31;100940.97;;;14.38;100.00
47104;BME280;32853;52.164;5.400;2023-04-28T08:31:09;100883.06;;;14.06;100.00
47104;BME280;32853;52.164;5.400;2023-04-28T08:33:34;100901.63;;;14.03;100.00
47104;BME280;32853;52.164;5.400;2023-04-28T08:35:59;100965.28;;;14.43;100.00
47104;BME280;32853;52.164;5.400;2023-04-28T08:38:26;100891.38;;;13.99;100.00
47104;BME280;32853;52.164;5.400;2023-04-28T08:40:51;100914.41;;;13.93;100.00
47104;BME280;32853;52.164;5.400;2023-04-28T08:43:16;100940.50;;;14.14;100.00
47104;BME280;32853;52.164;5.400;2023-04-28T08:45:43;100951.84;;;14.32;100.00
47104;BME280;32853;52.164;5.400;2023-04-28T08:48:20;100932.59;;;14.31;100.00
47104;BME280;32853;52.164;5.400;2023-04-28T08:50:50;100944.44;;;14.56;100.00
47104;BME280;32853;52.164;5.400;2023-04-28T08:53:26;100943.25;;;14.45;100.00
47104;BME280;32853;52.164;5.400;2023-04-28T08:55:55;100893.72;;;14.36;100.00
47104;BME280;32853;52.164;5.400;2023-04-28T08:58:35;100918.00;;;14.41;100.00
47104;BME280;32853;52.164;5.400;2023-04-28T09:01:03;100931.88;;;14.28;100.00
47104;BME280;32853;52.164;5.400;2023-04-28T09:03:29;100943.03;;;14.33;100.00
47104;BME280;32853;52.164;5.400;2023-04-28T09:05:56;100942.75;;;14.37;100.00
47104;BME280;32853;52.164;5.400;2023-04-28T09:08:21;100895.91;;;14.28;100.00
47104;BME280;32853;52.164;5.400;2023-04-28T09:10:46;100939.94;;;14.73;100.00
47104;BME280;32853;52.164;5.400;2023-04-28T09:13:24;100937.16;;;14.76;100.00
47104;BME280;32853;52.164;5.400;2023-04-28T09:15:58;100901.66;;;14.68;100.00
47104;BME280;32853;52.164;5.400;2023-04-28T09:18:34;100901.47;;;14.55;100.00
47104;BME280;32853;52.164;5.400;2023-04-28T09:21:13;100928.97;;;14.81;100.00
47104;BME280;32853;52.164;5.400;2023-04-28T09:23:47;100909.63;;;14.50;100.00
47104;BME280;32853;52.164;5.400;2023-04-28T09:26:17;100935.09;;;14.81;100.00
47104;BME280;32853;52.164;5.400;2023-04-28T09:28:43;100928.38;;;14.60;100.00
47104;BME280;32853;52.164;5.400;2023-04-28T09:31:22;100901.41;;;14.57;100.00
47104;BME280;32853;52.164;5.400;2023-04-28T09:33:58;100936.38;;;14.90;100.00
47104;BME280;32853;52.164;5.400;2023-04-28T09:36:28;100932.53;;;14.96;100.00
47104;BME280;32853;52.164;5.400;2023-04-28T09:38:59;100941.22;;;14.98;100.00
47104;BME280;32853;52.164;5.400;2023-04-28T09:44:12;100933.38;;;15.12;100.00
47104;BME280;32853;52.164;5.400;2023-04-28T09:46:44;100932.94;;;15.04;100.00
47104;BME280;32853;52.164;5.400;2023-04-28T09:49:27;100910.38;;;15.00;100.00
47104;BME280;32853;52.164;5.400;2023-04-28T09:52:11;100915.78;;;15.13;100.00
47104;BME280;32853;52.164;5.400;2023-04-28T09:54:54;100852.28;;;14.87;100.00
47104;BME280;32853;52.164;5.400;2023-04-28T09:57:30;100861.56;;;14.78;100.00
47104;BME280;32853;52.164;5.400;2023-04-28T09:59:57;100905.94;;;14.85;100.00
47104;BME280;32853;52.164;5.400;2023-04-28T10:02:23;100899.31;;;15.09;100.00
47104;BME280;32853;52.164;5.400;2023-04-28T10:04:52;100903.03;;;15.21;100.00
47104;BME280;32853;52.164;5.400;2023-04-28T10:07:18;100913.59;;;15.35;100.00
47104;BME280;32853;52.164;5.400;2023-04-28T10:09:50;100919.44;;;15.40;100.00
47104;BME280;32853;52.164;5.400;2023-04-28T10:12:24;100913.91;;;15.45;100.00
47104;BME280;32853;52.164;5.400;2023-04-28T10:14:50;100906.34;;;15.38;100.00
47104;BME280;32853;52.164;5.400;2023-04-28T10:17:19;100903.41;;;15.29;100.00
47104;BME280;32853;52.164;5.400;2023-04-28T10:19:57;100911.38;;;15.43;100.00
47104;BME280;32853;52.164;5.400;2023-04-28T10:22:57;100906.94;;;15.44;100.00
47104;BME280;32853;52.164;5.400;2023-04-28T10:25:27;100910.22;;;15.33;100.00
47104;BME280;32853;52.164;5.400;2023-04-28T10:27:54;100871.84;;;15.13;100.00
47104;BME280;32853;52.164;5.400;2023-04-28T10:30:21;100918.16;;;15.47;100.00
47104;BME280;32853;52.164;5.400;2023-04-28T10:32:47;100908.63;;;15.45;100.00
47104;BME280;32853;52.164;5.400;2023-04-28T10:38:09;100910.78;;;15.38;100.00
47104;BME280;32853;52.164;5.400;2023-04-28T10:40:36;100905.69;;;15.35;100.00
47104;BME280;32853;52.164;5.400;2023-04-28T10:43:05;100869.56;;;15.37;100.00
47104;BME280;32853;52.164;5.400;2023-04-28T10:48:22;100874.81;;;15.37;100.00
47104;BME280;32853;52.164;5.400;2023-04-28T10:56:25;100865.59;;;15.30;100.00
47104;BME280;32853;52.164;5.400;2023-04-28T10:58:57;100905.19;;;15.58;100.00
47104;BME280;32853;52.164;5.400;2023-04-28T11:01:24;100923.69;;;15.73;100.00
47104;BME280;32853;52.164;5.400;2023-04-28T11:04:06;100918.16;;;15.77;100.00
47104;BME280;32853;52.164;5.400;2023-04-28T11:12:16;100911.47;;;15.86;100.00
47104;BME280;32853;52.164;5.400;2023-04-28T11:14:46;100918.53;;;16.00;100.00
47104;BME280;32853;52.164;5.400;2023-04-28T11:17:11;100899.88;;;15.74;100.00
47104;BME280;32853;52.164;5.400;2023-04-28T11:19:43;100900.25;;;15.68;100.00
47104;BME280;32853;52.164;5.400;2023-04-28T11:22:19;100908.06;;;15.69;100.00
47104;BME280;32853;52.164;5.400;2023-04-28T11:24:58;100891.56;;;15.66;100.00
47104;BME280;32853;52.164;5.400;2023-04-28T11:27:26;100896.16;;;15.62;100.00
47104;BME280;32853;52.164;5.400;2023-04-28T11:29:52;100902.31;;;15.77;100.00
47104;BME280;32853;52.164;5.400;2023-04-28T11:32:27;100891.03;;;16.04;100.00
47104;BME280;32853;52.164;5.400;2023-04-28T11:34:52;100901.78;;;16.01;100.00
47104;BME280;32853;52.164;5.400;2023-04-28T11:37:18;100894.31;;;16.07;100.00
47104;BME280;32853;52.164;5.400;2023-04-28T11:39:45;100897.03;;;16.34;100.00
47104;BME280;32853;52.164;5.400;2023-04-28T11:42:10;100861.44;;;15.84;100.00
47104;BME280;32853;52.164;5.400;2023-04-28T11:44:36;100902.13;;;16.23;100.00
47104;BME280;32853;52.164;5.400;2023-04-28T11:47:03;100857.47;;;16.06;100.00
47104;BME280;32853;52.164;5.400;2023-04-28T11:49:45;100888.19;;;16.21;100.00
47104;BME280;32853;52.164;5.400;2023-04-28T11:52:12;100892.91;;;16.30;100.00
47104;BME280;32853;52.164;5.400;2023-04-28T11:54:38;100888.31;;;16.19;100.00
47104;BME280;32853;52.164;5.400;2023-04-28T11:57:04;100860.13;;;16.06;100.00
47104;BME280;32853;52.164;5.400;2023-04-28T11:59:34;100880.34;;;16.34;100.00
47104;BME280;32853;52.164;5.400;2023-04-28T12:02:01;100863.19;;;16.41;100.00
47104;BME280;32853;52.164;5.400;2023-04-28T12:07:07;100896.06;;;16.49;100.00
47104;BME280;32853;52.164;5.400;2023-04-28T12:09:38;100907.94;;;16.56;100.00
47104;BME280;32853;52.164;5.400;2023-04-28T12:12:13;100900.91;;;16.28;100.00
47104;BME280;32853;52.164;5.400;2023-04-28T12:15:02;100915.31;;;16.37;100.00
47104;BME280;32853;52.164;5.400;2023-04-28T12:17:39;100912.88;;;16.34;100.00
47104;BME280;32853;52.164;5.400;2023-04-28T12:20:08;100914.75;;;16.18;100.00
47104;BME280;32853;52.164;5.400;2023-04-28T12:22:45;100921.94;;;16.30;100.00
47104;BME280;32853;52.164;5.400;2023-04-28T12:25:21;100918.81;;;16.23;100.00
47104;BME280;32853;52.164;5.400;2023-04-28T12:28:04;100913.16;;;16.15;100.00
47104;BME280;32853;52.164;5.400;2023-04-28T12:30:43;100922.88;;;16.43;100.00
47104;BME280;32853;52.164;5.400;2023-04-28T12:33:26;100924.75;;;16.41;100.00
47104;BME280;32853;52.164;5.400;2023-04-28T12:35:55;100907.13;;;16.27;100.00
47104;BME280;32853;52.164;5.400;2023-04-28T12:38:36;100883.88;;;16.20;100.00
47104;BME280;32853;52.164;5.400;2023-04-28T12:41:24;100889.41;;;16.30;100.00
47104;BME280;32853;52.164;5.400;2023-04-28T12:43:51;100915.88;;;16.42;100.00
47104;BME280;32853;52.164;5.400;2023-04-28T12:46:17;100917.22;;;16.21;100.00
47104;BME280;32853;52.164;5.400;2023-04-28T12:48:48;100879.34;;;16.08;100.00
47104;BME280;32853;52.164;5.400;2023-04-28T12:51:23;100903.72;;;16.25;100.00
47104;BME280;32853;52.164;5.400;2023-04-28T12:53:56;100911.94;;;16.35;100.00
47104;BME280;32853;52.164;5.400;2023-04-28T12:56:23;100922.19;;;16.40;100.00
47104;BME280;32853;52.164;5.400;2023-04-28T12:58:48;100896.84;;;16.37;100.00
47104;BME280;32853;52.164;5.400;2023-04-28T13:01:14;100916.97;;;16.67;100.00
47104;BME280;32853;52.164;5.400;2023-04-28T13:03:42;100871.84;;;16.43;100.00
47104;BME280;32853;52.164;5.400;2023-04-28T13:06:08;100884.53;;;16.50;100.00
47104;BME280;32853;52.164;5.400;2023-04-28T13:08:36;100917.09;;;16.92;100.00
47104;BME280;32853;52.164;5.400;2023-04-28T13:11:02;100924.13;;;16.79;100.00
47104;BME280;32853;52.164;5.400;2023-04-28T13:13:34;100923.09;;;16.81;100.00
47104;BME280;32853;52.164;5.400;2023-04-28T13:15:59;100923.56;;;16.60;100.00
47104;BME280;32853;52.164;5.400;2023-04-28T13:18:25;100887.69;;;16.28;100.00
47104;BME280;32853;52.164;5.400;2023-04-28T13:20:50;100908.56;;;16.60;100.00